createdAt,value
2019-05-12T09:15:56.817Z,13.30
2019-05-12T09:18:33.658Z,13.30
2019-05-12T09:20:56.165Z,13.20
2019-05-12T09:23:25.020Z,13.20
2019-05-12T09:25:57.060Z,13.20
2019-05-12T09:28:24.355Z,13.20
2019-05-12T09:30:54.384Z,13.10
2019-05-12T09:33:29.534Z,13.20
2019-05-12T09:35:54.163Z,13.30
2019-05-12T09:38:26.239Z,13.30
2019-05-12T09:41:00.901Z,13.30
2019-05-12T09:43:24.249Z,13.40
2019-05-12T09:45:56.483Z,13.40
2019-05-12T09:48:24.716Z,13.50
2019-05-12T09:51:00.362Z,13.40
2019-05-12T09:53:24.285Z,13.50
2019-05-12T09:55:53.874Z,13.50
2019-05-12T09:58:25.247Z,13.50
2019-05-12T10:00:54.298Z,13.50
2019-05-12T10:03:24.182Z,13.40
2019-05-12T10:05:53.486Z,13.40
2019-05-12T10:08:24.198Z,13.50
2019-05-12T10:10:53.608Z,13.40
2019-05-12T10:13:26.238Z,13.30
2019-05-12T10:15:53.702Z,13.30
2019-05-12T10:18:24.484Z,13.40
2019-05-12T10:20:53.491Z,13.40
2019-05-12T10:23:25.166Z,13.30
2019-05-12T10:25:53.814Z,13.20
2019-05-12T10:28:23.788Z,13.10
2019-05-12T10:30:56.764Z,13.00
2019-05-12T10:33:23.440Z,13.00
2019-05-12T10:35:54.173Z,13.00
2019-05-12T10:38:24.141Z,12.90
2019-05-12T10:40:53.346Z,12.90
2019-05-12T10:43:23.687Z,12.90
2019-05-12T10:45:53.761Z,13.10
2019-05-12T10:48:23.463Z,13.20
2019-05-12T10:50:53.583Z,13.30
2019-05-12T10:53:23.488Z,13.50
2019-05-12T10:55:54.316Z,13.50
2019-05-12T10:58:24.891Z,13.60
2019-05-12T11:00:53.986Z,13.80
2019-05-12T11:03:24.537Z,13.90
2019-05-12T11:06:01.853Z,14.00
2019-05-12T11:08:24.691Z,14.10
2019-05-12T11:10:59.235Z,14.10
2019-05-12T11:13:24.247Z,14.10
2019-05-12T11:15:54.566Z,14.30
2019-05-12T11:18:26.002Z,14.40
2019-05-12T11:20:54.524Z,14.30
2019-05-12T11:23:24.496Z,14.30
2019-05-12T11:25:53.634Z,14.40
2019-05-12T11:28:24.426Z,14.40
2019-05-12T11:30:52.960Z,14.40
2019-05-12T11:33:23.658Z,14.60
2019-05-12T11:35:54.213Z,14.60
2019-05-12T11:38:24.437Z,14.70
2019-05-12T11:40:53.850Z,14.80
2019-05-12T11:43:24.772Z,14.80
2019-05-12T11:45:53.645Z,14.80
2019-05-12T11:48:23.578Z,14.70
2019-05-12T11:50:54.434Z,14.70
2019-05-12T11:53:30.527Z,14.60
2019-05-12T11:55:54.351Z,14.50
2019-05-12T11:58:23.619Z,14.50
2019-05-12T12:00:58.657Z,14.60
2019-05-12T12:03:24.692Z,14.60
2019-05-12T12:05:53.883Z,14.60
2019-05-12T12:08:26.260Z,14.60
2019-05-12T12:10:54.137Z,14.80
2019-05-12T12:13:25.551Z,14.90
2019-05-12T12:15:53.904Z,14.90
2019-05-12T12:18:23.509Z,14.80
2019-05-12T12:20:55.070Z,14.70
2019-05-12T12:23:23.210Z,14.50
2019-05-12T12:25:53.495Z,14.50
2019-05-12T12:28:24.226Z,14.60
2019-05-12T12:30:56.845Z,14.80
2019-05-12T12:33:23.624Z,14.70
2019-05-12T12:35:56.581Z,14.70
2019-05-12T12:38:22.956Z,14.80
2019-05-12T12:40:53.569Z,14.70
2019-05-12T12:43:24.675Z,14.60
2019-05-12T12:45:54.364Z,14.70
2019-05-12T12:48:27.736Z,14.90
2019-05-12T12:50:53.735Z,15.20
2019-05-12T12:53:23.808Z,15.40
2019-05-12T12:55:53.739Z,15.50
2019-05-12T12:58:26.899Z,15.70
2019-05-12T13:00:56.668Z,15.80
2019-05-12T13:03:25.720Z,15.90
2019-05-12T13:05:54.645Z,16.00
2019-05-12T13:08:24.695Z,16.00
2019-05-12T13:10:54.419Z,16.10
2019-05-12T13:13:24.561Z,16.10
2019-05-12T13:15:53.796Z,15.90
2019-05-12T13:18:24.719Z,15.70
2019-05-12T13:20:53.989Z,15.50
2019-05-12T13:23:34.696Z,15.60
2019-05-12T13:25:54.763Z,15.60
2019-05-12T13:28:25.841Z,15.60
2019-05-12T13:31:07.595Z,15.40
2019-05-12T13:33:25.199Z,15.00
2019-05-12T13:35:55.644Z,14.90
2019-05-12T13:38:24.769Z,14.80
2019-05-12T13:40:54.163Z,14.80
2019-05-12T13:43:23.766Z,14.70
2019-05-12T13:45:53.472Z,14.60
2019-05-12T13:48:23.995Z,14.60
2019-05-12T13:51:03.851Z,14.50
2019-05-12T13:53:24.453Z,14.40
2019-05-12T13:55:54.261Z,14.50
2019-05-12T13:58:28.321Z,14.40
2019-05-12T14:01:10.530Z,14.50
2019-05-12T14:03:27.646Z,14.40
2019-05-12T14:05:55.319Z,14.50
2019-05-12T14:08:24.668Z,14.60
2019-05-12T14:10:58.682Z,14.80
2019-05-12T14:13:24.551Z,14.80
2019-05-12T14:15:53.790Z,14.90
2019-05-12T14:18:22.872Z,15.00
2019-05-12T14:20:58.837Z,14.90
2019-05-12T14:23:23.953Z,15.20
2019-05-12T14:25:54.283Z,15.40
2019-05-12T14:28:24.071Z,15.40
2019-05-12T14:30:54.402Z,15.30
2019-05-12T14:33:24.646Z,15.20
2019-05-12T14:35:53.930Z,15.30
2019-05-12T14:38:27.409Z,15.30
2019-05-12T14:40:53.731Z,15.40
2019-05-12T14:43:24.045Z,15.30
2019-05-12T14:45:54.103Z,15.30
2019-05-12T14:48:23.353Z,15.30
2019-05-12T14:50:53.513Z,15.40
2019-05-12T14:53:23.698Z,15.40
2019-05-12T14:55:53.586Z,15.40
2019-05-12T14:58:23.778Z,15.40
2019-05-12T15:00:56.227Z,15.40
2019-05-12T15:03:24.112Z,15.40
2019-05-12T15:05:54.529Z,15.40
2019-05-12T15:08:35.624Z,15.30
2019-05-12T15:10:54.058Z,15.30
2019-05-12T15:13:24.020Z,15.20
2019-05-12T15:15:56.114Z,15.10
2019-05-12T15:18:23.559Z,15.10
2019-05-12T15:20:54.393Z,15.10
2019-05-12T15:23:23.860Z,15.10
2019-05-12T15:25:53.823Z,15.10
2019-05-12T15:28:23.613Z,15.10
2019-05-12T15:30:54.131Z,15.10
2019-05-12T15:33:24.370Z,15.00
2019-05-12T15:35:54.696Z,14.90
2019-05-12T15:38:24.014Z,14.90
2019-05-12T15:40:53.845Z,14.90
2019-05-12T15:43:24.439Z,14.90
2019-05-12T15:45:57.397Z,14.90
2019-05-12T15:48:26.045Z,14.90
2019-05-12T15:50:59.491Z,14.80
2019-05-12T15:53:27.025Z,14.80
2019-05-12T15:55:55.522Z,14.80
2019-05-12T15:58:24.881Z,14.70
2019-05-12T16:00:55.204Z,14.70
2019-05-12T16:03:26.578Z,14.70
2019-05-12T16:05:54.942Z,14.70
2019-05-12T16:08:24.505Z,14.60
2019-05-12T16:10:56.114Z,14.60
2019-05-12T16:13:24.442Z,14.60
2019-05-12T16:15:57.681Z,14.60
2019-05-12T16:18:26.666Z,14.60
2019-05-12T16:20:58.824Z,14.60
2019-05-12T16:23:30.098Z,14.50
2019-05-12T16:26:01.027Z,14.50
2019-05-12T16:28:26.889Z,14.50
2019-05-12T16:30:58.807Z,14.60
2019-05-12T16:33:26.583Z,14.70
2019-05-12T16:35:59.897Z,14.80
2019-05-12T16:38:25.948Z,14.80
2019-05-12T16:40:54.790Z,15.00
2019-05-12T16:43:23.902Z,15.00
2019-05-12T16:45:53.833Z,15.00
2019-05-12T16:48:30.449Z,15.00
2019-05-12T16:50:53.423Z,15.00
2019-05-12T16:53:27.692Z,15.00
2019-05-12T16:55:53.271Z,14.90
2019-05-12T16:58:24.443Z,14.90
2019-05-12T17:00:53.420Z,14.90
2019-05-12T17:03:23.673Z,14.80
2019-05-12T17:05:55.859Z,14.80
2019-05-12T17:08:24.039Z,14.80
2019-05-12T17:11:01.214Z,14.70
2019-05-12T17:13:23.813Z,14.70
2019-05-12T17:15:55.283Z,14.70
2019-05-12T17:18:24.752Z,14.70
2019-05-12T17:20:54.686Z,14.70
2019-05-12T17:23:24.580Z,14.60
2019-05-12T17:25:54.011Z,14.60
2019-05-12T17:28:23.854Z,14.60
2019-05-12T17:30:54.365Z,14.60
2019-05-12T17:33:27.581Z,14.60
2019-05-12T17:35:54.098Z,14.60
2019-05-12T17:38:25.233Z,14.60
2019-05-12T17:40:58.930Z,14.60
2019-05-12T17:43:24.046Z,14.50
2019-05-12T17:45:56.914Z,14.60
2019-05-12T17:48:23.570Z,14.50
2019-05-12T17:50:53.926Z,14.50
2019-05-12T17:53:24.199Z,14.60
2019-05-12T17:55:56.230Z,14.60
2019-05-12T17:58:24.388Z,14.60
2019-05-12T18:00:54.322Z,14.60
2019-05-12T18:03:25.683Z,14.60
2019-05-12T18:05:53.722Z,14.60
2019-05-12T18:08:23.956Z,14.60
2019-05-12T18:10:54.507Z,14.60
2019-05-12T18:13:25.710Z,14.60
2019-05-12T18:15:54.209Z,14.60
2019-05-12T18:18:32.014Z,14.60
2019-05-12T18:20:55.564Z,14.70
2019-05-12T18:23:28.343Z,14.70
2019-05-12T18:25:54.549Z,14.70
2019-05-12T18:28:27.511Z,14.70
2019-05-12T18:30:53.943Z,14.70
2019-05-12T18:33:33.257Z,14.60
2019-05-12T18:35:54.522Z,14.70
2019-05-12T18:38:26.475Z,14.70
2019-05-12T18:40:54.298Z,14.70
2019-05-12T18:43:24.275Z,14.70
2019-05-12T18:45:57.228Z,14.70
2019-05-12T18:48:25.304Z,14.60
2019-05-12T18:50:54.597Z,14.60
2019-05-12T18:53:30.287Z,14.60
2019-05-12T18:55:54.165Z,14.60
2019-05-12T18:58:30.636Z,14.70
2019-05-12T19:00:53.930Z,14.60
2019-05-12T19:03:25.345Z,14.70
2019-05-12T19:05:54.625Z,14.70
2019-05-12T19:08:23.882Z,14.70
2019-05-12T19:10:52.765Z,14.80
2019-05-12T19:13:21.705Z,14.70
2019-05-12T19:15:52.504Z,14.70
2019-05-12T19:18:24.519Z,14.70
2019-05-12T19:20:54.028Z,14.80
2019-05-12T19:23:26.927Z,14.80
2019-05-12T19:25:54.143Z,14.70
2019-05-12T19:28:23.797Z,14.80
2019-05-12T19:30:54.644Z,14.80
2019-05-12T19:33:23.411Z,14.80
2019-05-12T19:35:59.719Z,14.80
2019-05-12T19:38:23.946Z,14.80
2019-05-12T19:40:56.319Z,14.80
2019-05-12T19:43:24.182Z,14.80
2019-05-12T19:46:02.718Z,14.80
2019-05-12T19:48:27.297Z,14.70
2019-05-12T19:50:57.003Z,14.80
2019-05-12T19:53:24.465Z,14.80
2019-05-12T19:55:53.347Z,14.80
2019-05-12T19:58:23.783Z,14.80
2019-05-12T20:00:54.289Z,14.80
2019-05-12T20:03:24.220Z,14.80
2019-05-12T20:05:53.845Z,14.80
2019-05-12T20:08:23.276Z,14.80
2019-05-12T20:10:54.111Z,14.80
2019-05-12T20:13:24.131Z,14.80
2019-05-12T20:15:53.217Z,14.80
2019-05-12T20:18:23.562Z,14.90
2019-05-12T20:20:58.380Z,14.80
2019-05-12T20:23:27.250Z,14.80
2019-05-12T20:25:56.068Z,14.80
2019-05-12T20:28:25.089Z,14.80
2019-05-12T20:31:00.668Z,14.80
2019-05-12T20:33:24.459Z,14.80
2019-05-12T20:35:54.731Z,14.80
2019-05-12T20:38:25.449Z,14.90
2019-05-12T20:40:54.458Z,14.90
2019-05-12T20:43:31.804Z,14.90
2019-05-12T20:45:53.826Z,14.90
2019-05-12T20:48:26.517Z,14.90
2019-05-12T20:50:53.127Z,15.00
2019-05-12T20:53:31.213Z,14.90
2019-05-12T20:55:54.598Z,14.90
2019-05-12T20:58:28.574Z,14.90
2019-05-12T21:00:53.882Z,15.00
2019-05-12T21:03:24.225Z,15.00
2019-05-12T21:05:58.104Z,15.00
2019-05-12T21:08:23.848Z,15.10
2019-05-12T21:10:54.233Z,15.10
2019-05-12T21:13:27.371Z,15.10
2019-05-12T21:15:54.181Z,15.10
2019-05-12T21:18:23.766Z,15.20
2019-05-12T21:20:54.682Z,15.20
2019-05-12T21:23:24.128Z,15.10
2019-05-12T21:25:57.911Z,15.20
2019-05-12T21:28:23.996Z,15.10
2019-05-12T21:30:55.778Z,15.30
2019-05-12T21:33:24.034Z,15.20
2019-05-12T21:35:54.599Z,15.30
2019-05-12T21:38:27.455Z,15.20
2019-05-12T21:40:54.207Z,15.20
2019-05-12T21:43:23.031Z,15.20
2019-05-12T21:45:53.703Z,15.30
2019-05-12T21:48:25.508Z,15.30
2019-05-12T21:50:53.180Z,15.30
2019-05-12T21:53:23.883Z,15.20
2019-05-12T21:55:57.665Z,15.30
2019-05-12T21:58:23.612Z,15.20
2019-05-12T22:00:59.602Z,15.20
2019-05-12T22:03:26.222Z,15.20
2019-05-12T22:05:55.759Z,15.20
2019-05-12T22:08:26.415Z,15.20
2019-05-12T22:10:55.229Z,15.20
2019-05-12T22:13:24.068Z,15.10
2019-05-12T22:15:57.041Z,15.20
2019-05-12T22:18:23.882Z,15.20
2019-05-12T22:21:01.341Z,15.20
2019-05-12T22:23:24.802Z,15.20
2019-05-12T22:25:55.668Z,15.20
2019-05-12T22:28:24.361Z,15.30
2019-05-12T22:30:54.121Z,15.30
2019-05-12T22:33:24.175Z,15.30
2019-05-12T22:36:02.759Z,15.30
2019-05-12T22:38:27.097Z,15.30
2019-05-12T22:40:59.343Z,15.20
2019-05-12T22:43:25.508Z,15.20
2019-05-12T22:45:54.893Z,15.20
2019-05-12T22:48:24.108Z,15.10
2019-05-12T22:50:54.901Z,15.10
2019-05-12T22:53:25.776Z,15.10
2019-05-12T22:55:53.902Z,15.10
2019-05-12T22:58:25.372Z,15.10
2019-05-12T23:01:00.931Z,15.00
2019-05-12T23:03:23.829Z,14.90
2019-05-12T23:06:00.069Z,14.90
2019-05-12T23:08:24.646Z,15.10
2019-05-12T23:10:56.055Z,15.10
2019-05-12T23:13:24.353Z,15.10
2019-05-12T23:15:53.227Z,15.20
2019-05-12T23:18:28.673Z,15.10
2019-05-12T23:20:54.136Z,15.10
2019-05-12T23:23:24.347Z,15.10
2019-05-12T23:26:00.153Z,15.00
2019-05-12T23:28:23.881Z,14.90
2019-05-12T23:30:53.497Z,14.70
2019-05-12T23:33:25.450Z,14.40
2019-05-12T23:35:54.441Z,14.20
2019-05-12T23:38:24.613Z,14.00
2019-05-12T23:40:53.886Z,13.80
2019-05-12T23:43:23.744Z,13.70
2019-05-12T23:45:53.462Z,13.60
2019-05-12T23:48:22.575Z,13.50
2019-05-12T23:50:54.246Z,13.50
2019-05-12T23:53:24.348Z,13.50
2019-05-12T23:55:54.142Z,13.60
2019-05-12T23:58:23.595Z,13.60
